Time;durP1;ratioP1;P1;durP2;ratioP2;P2;SDS_P1;SDS_P2;PMS_P1;PMS_P2;Temp;Humidity;BMP_temperature;BMP_pressure;BME280_temperature;BME280_humidity;BME280_pressure;Samples;Min_cycle;Max_cycle;Signal;HPM_P1;HPM_P2
2023/04/18 00:04:32;;;;;;;11.98;7.05;;;;;;;;;;10292101;28;20072;-64
2023/04/18 00:09:31;;;;;;;11.63;6.95;;;;;;;;;;10289241;28;20064;-64
2023/04/18 00:14:33;;;;;;;11.77;6.63;;;;;;;;;;10290144;28;20056;-64
2023/04/18 00:19:33;;;;;;;10.50;6.20;;;;;;;;;;10289389;28;20085;-64
2023/04/18 00:24:31;;;;;;;9.32;6.32;;;;;;;;;;10289296;28;20044;-65
2023/04/18 00:29:31;;;;;;;8.77;6.03;;;;;;;;;;10287600;28;20068;-64
2023/04/18 00:34:29;;;;;;;12.27;6.88;;;;;;;;;;10286249;28;20064;-64
2023/04/18 00:39:27;;;;;;;13.57;6.78;;;;;;;;;;10290265;28;20527;-64
2023/04/18 00:44:26;;;;;;;9.45;6.00;;;;;;;;;;10288581;28;20167;-64
2023/04/18 00:49:25;;;;;;;10.05;6.90;;;;;;;;;;10290360;28;20088;-64
2023/04/18 00:54:24;;;;;;;12.48;7.05;;;;;;;;;;10288818;28;20072;-64
2023/04/18 00:59:22;;;;;;;13.38;6.63;;;;;;;;;;10288941;28;20100;-64
2023/04/18 01:04:21;;;;;;;9.73;5.80;;;;;;;;;;10289747;28;20071;-64
2023/04/18 01:09:21;;;;;;;8.52;6.93;;;;;;;;;;10288463;28;20056;-64
2023/04/18 01:14:19;;;;;;;7.53;5.93;;;;;;;;;;10274724;28;20080;-64
2023/04/18 01:19:17;;;;;;;13.10;6.38;;;;;;;;;;10287916;28;20514;-64
2023/04/18 01:24:17;;;;;;;9.57;5.30;;;;;;;;;;10300206;28;20049;-65
2023/04/18 01:29:15;;;;;;;10.48;6.18;;;;;;;;;;10288271;28;20513;-64
2023/04/18 01:34:14;;;;;;;11.45;6.13;;;;;;;;;;10287577;28;20079;-64
2023/04/18 01:39:13;;;;;;;10.15;6.63;;;;;;;;;;10290810;28;20072;-64
2023/04/18 01:44:12;;;;;;;8.50;6.50;;;;;;;;;;10290994;28;20057;-65
2023/04/18 01:49:11;;;;;;;8.85;6.50;;;;;;;;;;10288294;28;20072;-65
2023/04/18 01:54:12;;;;;;;9.10;5.85;;;;;;;;;;10288237;28;20328;-64
2023/04/18 01:59:10;;;;;;;8.15;6.03;;;;;;;;;;10285954;28;20083;-64
2023/04/18 02:04:10;;;;;;;10.68;6.60;;;;;;;;;;10287725;28;20530;-64
2023/04/18 02:09:11;;;;;;;8.57;5.95;;;;;;;;;;10288101;28;20056;-64
2023/04/18 02:14:12;;;;;;;11.30;7.10;;;;;;;;;;10295280;28;20447;-65
2023/04/18 02:19:12;;;;;;;8.10;6.15;;;;;;;;;;10294527;28;20069;-64
2023/04/18 02:24:12;;;;;;;10.90;6.32;;;;;;;;;;10296299;28;20084;-64
2023/04/18 02:29:12;;;;;;;13.57;6.95;;;;;;;;;;10297871;28;20080;-64
2023/04/18 02:34:10;;;;;;;10.10;6.30;;;;;;;;;;10294756;28;20072;-64
2023/04/18 02:39:11;;;;;;;7.90;6.18;;;;;;;;;;10297365;28;20069;-64
2023/04/18 02:44:09;;;;;;;10.07;5.90;;;;;;;;;;10294706;28;20131;-64
2023/04/18 02:49:10;;;;;;;10.80;5.80;;;;;;;;;;10295420;28;20064;-64
2023/04/18 02:54:08;;;;;;;9.27;6.60;;;;;;;;;;10293099;28;20522;-64
2023/04/18 02:59:21;;;;;;;11.82;6.43;;;;;;;;;;10278173;28;20056;-64
2023/04/18 03:04:25;;;;;;;9.50;6.18;;;;;;;;;;10296499;28;20064;-64
2023/04/18 03:09:35;;;;;;;12.77;6.18;;;;;;;;;;10277744;28;20080;-64
2023/04/18 03:14:43;;;;;;;12.57;6.63;;;;;;;;;;10293026;28;20081;-64
2023/04/18 03:19:43;;;;;;;9.57;6.15;;;;;;;;;;10292200;28;20092;-64
2023/04/18 03:24:44;;;;;;;6.82;4.95;;;;;;;;;;10291674;28;20076;-64
2023/04/18 03:29:44;;;;;;;8.27;5.25;;;;;;;;;;10294121;28;20073;-64
2023/04/18 03:34:43;;;;;;;7.53;5.32;;;;;;;;;;10288762;28;20072;-64
2023/04/18 03:39:44;;;;;;;9.27;5.95;;;;;;;;;;10278825;28;20079;-64
2023/04/18 03:44:45;;;;;;;9.02;5.90;;;;;;;;;;10276958;28;20597;-64
2023/04/18 03:49:47;;;;;;;11.32;6.95;;;;;;;;;;10288628;28;20070;-64
2023/04/18 03:54:45;;;;;;;9.50;6.50;;;;;;;;;;10290254;28;20040;-64
2023/04/18 03:59:48;;;;;;;9.05;7.68;;;;;;;;;;10287484;28;20078;-64
2023/04/18 04:04:46;;;;;;;8.75;7.82;;;;;;;;;;10287887;28;20491;-64
2023/04/18 04:09:45;;;;;;;10.25;7.65;;;;;;;;;;10282919;28;20517;-64
2023/04/18 04:14:43;;;;;;;8.75;7.65;;;;;;;;;;10289546;28;20075;-64
2023/04/18 04:19:43;;;;;;;10.40;8.32;;;;;;;;;;10274798;28;20087;-64
2023/04/18 04:24:45;;;;;;;11.43;8.27;;;;;;;;;;10291429;28;20092;-64
2023/04/18 04:29:48;;;;;;;16.60;10.85;;;;;;;;;;10289170;28;20063;-64
2023/04/18 04:34:50;;;;;;;11.25;8.63;;;;;;;;;;10270983;28;20072;-64
2023/04/18 04:39:51;;;;;;;9.73;8.82;;;;;;;;;;10283066;28;20068;-63
2023/04/18 04:45:11;;;;;;;8.88;7.97;;;;;;;;;;10282763;28;20076;-64
2023/04/18 04:50:14;;;;;;;11.77;9.13;;;;;;;;;;10286705;28;20064;-62
2023/04/18 04:55:13;;;;;;;15.82;11.05;;;;;;;;;;10263644;28;20103;-63
2023/04/18 05:00:14;;;;;;;13.48;9.32;;;;;;;;;;10279295;28;20084;-63
2023/04/18 05:05:14;;;;;;;16.10;10.43;;;;;;;;;;10277797;28;20593;-63
2023/04/18 05:10:12;;;;;;;10.50;9.40;;;;;;;;;;10284484;28;20065;-64
2023/04/18 05:15:10;;;;;;;14.43;11.30;;;;;;;;;;10278383;28;20490;-64
2023/04/18 05:20:10;;;;;;;12.82;10.52;;;;;;;;;;10269275;28;20073;-64
2023/04/18 05:25:11;;;;;;;13.40;11.63;;;;;;;;;;10265618;28;20065;-64
2023/04/18 05:30:10;;;;;;;12.10;10.68;;;;;;;;;;10263378;28;20603;-63
2023/04/18 05:35:08;;;;;;;17.73;12.65;;;;;;;;;;10252155;28;20065;-64
2023/04/18 05:40:08;;;;;;;14.57;11.40;;;;;;;;;;10258959;28;20128;-64
2023/04/18 05:45:08;;;;;;;14.02;10.88;;;;;;;;;;10267112;28;20525;-64
2023/04/18 05:50:07;;;;;;;13.30;11.55;;;;;;;;;;10275456;28;20079;-64
2023/04/18 05:55:06;;;;;;;14.68;11.23;;;;;;;;;;10284088;28;20068;-64
2023/04/18 06:00:06;;;;;;;11.40;10.10;;;;;;;;;;10282043;28;20080;-64
2023/04/18 06:05:11;;;;;;;10.57;9.18;;;;;;;;;;10281407;28;20537;-64
2023/04/18 06:10:12;;;;;;;13.50;8.52;;;;;;;;;;10276221;28;20068;-64
2023/04/18 06:15:11;;;;;;;17.45;8.93;;;;;;;;;;10281965;28;20069;-64
2023/04/18 06:20:11;;;;;;;13.32;8.23;;;;;;;;;;10285423;28;20076;-63
2023/04/18 06:25:09;;;;;;;9.40;7.78;;;;;;;;;;10284994;28;20514;-63
2023/04/18 06:30:08;;;;;;;12.70;9.20;;;;;;;;;;10276040;28;20084;-63
2023/04/18 06:35:06;;;;;;;11.45;8.07;;;;;;;;;;10278210;28;20073;-63
2023/04/18 06:40:07;;;;;;;10.50;8.85;;;;;;;;;;10278165;28;20113;-63
2023/04/18 06:45:05;;;;;;;11.75;8.05;;;;;;;;;;10280083;28;20080;-63
2023/04/18 06:50:04;;;;;;;10.35;7.78;;;;;;;;;;10276719;28;20080;-63
2023/04/18 06:55:02;;;;;;;14.63;7.95;;;;;;;;;;10281679;28;20068;-63
2023/04/18 07:00:02;;;;;;;12.20;8.85;;;;;;;;;;10293408;28;20485;-63
2023/04/18 07:05:01;;;;;;;14.15;7.68;;;;;;;;;;10291325;28;20088;-63
2023/04/18 07:09:59;;;;;;;10.50;9.20;;;;;;;;;;10295082;28;20503;-63
2023/04/18 07:14:57;;;;;;;12.88;8.45;;;;;;;;;;10290429;28;20068;-63
2023/04/18 07:19:58;;;;;;;16.67;9.05;;;;;;;;;;10290507;28;20493;-63
2023/04/18 07:24:56;;;;;;;12.43;8.63;;;;;;;;;;10291475;28;20081;-63
2023/04/18 07:29:54;;;;;;;10.35;9.35;;;;;;;;;;10278676;28;20533;-63
2023/04/18 07:34:52;;;;;;;10.20;9.15;;;;;;;;;;10286027;28;20084;-63
2023/04/18 07:39:52;;;;;;;13.48;11.35;;;;;;;;;;10291149;28;20666;-63
2023/04/18 07:44:50;;;;;;;12.73;10.90;;;;;;;;;;10283677;28;20080;-63
2023/04/18 07:49:48;;;;;;;12.85;9.20;;;;;;;;;;10288764;28;20083;-63
2023/04/18 07:54:46;;;;;;;10.82;9.52;;;;;;;;;;10286419;28;20079;-63
2023/04/18 07:59:46;;;;;;;10.32;8.40;;;;;;;;;;10288651;28;20060;-63
2023/04/18 08:04:45;;;;;;;11.75;9.05;;;;;;;;;;10291088;28;20091;-63
2023/04/18 08:09:44;;;;;;;13.02;8.95;;;;;;;;;;10289504;28;20147;-63
2023/04/18 08:14:42;;;;;;;34.15;22.55;;;;;;;;;;10291006;28;20077;-63
2023/04/18 08:19:43;;;;;;;15.00;10.73;;;;;;;;;;10289694;28;20068;-63
2023/04/18 08:24:42;;;;;;;10.38;8.43;;;;;;;;;;10285111;28;20076;-63
2023/04/18 08:30:02;;;;;;;15.02;10.10;;;;;;;;;;10284869;28;20076;-63
2023/04/18 08:35:02;;;;;;;10.63;6.80;;;;;;;;;;10287161;28;20474;-62
2023/04/18 08:40:01;;;;;;;13.18;7.25;;;;;;;;;;10288724;28;20075;-62
2023/04/18 08:45:00;;;;;;;13.27;8.48;;;;;;;;;;10289611;28;20067;-63
2023/04/18 08:49:58;;;;;;;10.57;7.82;;;;;;;;;;10284359;28;20091;-64
2023/04/18 08:54:58;;;;;;;11.82;7.82;;;;;;;;;;10290028;28;20553;-62
2023/04/18 08:59:56;;;;;;;11.07;8.07;;;;;;;;;;10271846;28;20083;-62
2023/04/18 09:04:55;;;;;;;9.68;7.28;;;;;;;;;;10284447;28;20076;-62
2023/04/18 09:09:53;;;;;;;8.93;7.65;;;;;;;;;;10280444;28;20068;-62
2023/04/18 09:14:56;;;;;;;10.68;7.80;;;;;;;;;;10284864;28;20065;-63
2023/04/18 09:19:55;;;;;;;12.80;6.57;;;;;;;;;;10286140;28;20072;-63
2023/04/18 09:24:56;;;;;;;14.30;7.68;;;;;;;;;;10284822;28;20103;-62
2023/04/18 09:29:55;;;;;;;8.73;6.63;;;;;;;;;;10284088;28;20691;-62
2023/04/18 09:34:56;;;;;;;8.95;6.90;;;;;;;;;;10286229;28;20069;-62
2023/04/18 09:39:55;;;;;;;8.60;6.35;;;;;;;;;;10287647;28;20506;-62
2023/04/18 09:44:59;;;;;;;13.05;8.23;;;;;;;;;;10290860;28;20545;-62
2023/04/18 09:49:57;;;;;;;9.87;6.80;;;;;;;;;;10290746;28;20079;-62
2023/04/18 09:54:59;;;;;;;9.75;7.07;;;;;;;;;;10288462;28;20072;-62
2023/04/18 10:00:12;;;;;;;10.68;7.60;;;;;;;;;;10288417;28;20063;-63
2023/04/18 10:05:11;;;;;;;11.75;6.65;;;;;;;;;;10287903;28;20060;-62
2023/04/18 10:10:09;;;;;;;8.30;6.55;;;;;;;;;;10290642;28;20069;-63
2023/04/18 10:15:09;;;;;;;13.52;8.52;;;;;;;;;;10288279;28;20068;-63
2023/04/18 10:20:09;;;;;;;10.82;7.13;;;;;;;;;;10290039;28;20502;-63
2023/04/18 10:25:07;;;;;;;11.70;6.75;;;;;;;;;;10289372;28;20076;-63
2023/04/18 10:30:06;;;;;;;11.40;7.43;;;;;;;;;;10285772;28;20615;-63
2023/04/18 10:35:08;;;;;;;12.88;7.78;;;;;;;;;;10295376;28;20072;-63
2023/04/18 10:40:07;;;;;;;9.50;7.25;;;;;;;;;;10296512;28;20087;-63
2023/04/18 10:45:17;;;;;;;15.65;7.45;;;;;;;;;;10295181;28;20068;-62
2023/04/18 10:50:17;;;;;;;12.90;6.80;;;;;;;;;;10292692;28;20084;-63
2023/04/18 10:55:17;;;;;;;10.55;6.82;;;;;;;;;;10296729;28;20095;-63
2023/04/18 11:00:16;;;;;;;9.48;6.43;;;;;;;;;;10295348;28;20431;-63
2023/04/18 11:05:19;;;;;;;18.80;6.80;;;;;;;;;;10294543;28;20069;-63
2023/04/18 11:10:19;;;;;;;10.75;7.55;;;;;;;;;;10295580;28;20078;-62
2023/04/18 11:15:20;;;;;;;10.43;6.32;;;;;;;;;;10294327;28;20072;-63
2023/04/18 11:20:19;;;;;;;11.82;6.50;;;;;;;;;;10292286;28;20065;-63
2023/04/18 11:25:21;;;;;;;7.78;5.80;;;;;;;;;;10292333;28;20475;-62
2023/04/18 11:30:19;;;;;;;9.23;6.07;;;;;;;;;;10292658;28;20064;-62
2023/04/18 11:35:18;;;;;;;13.82;6.78;;;;;;;;;;10293288;28;20072;-62
2023/04/18 11:40:16;;;;;;;14.48;8.93;;;;;;;;;;10293050;28;20079;-62
2023/04/18 11:45:16;;;;;;;10.90;7.05;;;;;;;;;;10292906;28;20076;-63
2023/04/18 11:50:14;;;;;;;10.20;6.15;;;;;;;;;;10293685;28;20076;-63
2023/04/18 11:55:13;;;;;;;12.20;7.50;;;;;;;;;;10293410;28;20079;-63
2023/04/18 12:00:12;;;;;;;10.20;7.30;;;;;;;;;;10294219;28;20075;-63
2023/04/18 12:05:13;;;;;;;16.90;6.72;;;;;;;;;;10292815;28;20076;-63
2023/04/18 12:10:23;;;;;;;9.05;6.28;;;;;;;;;;10290454;28;20067;-64
2023/04/18 12:15:22;;;;;;;13.60;6.07;;;;;;;;;;10292534;28;20064;-62
2023/04/18 12:20:23;;;;;;;7.68;5.85;;;;;;;;;;10292760;28;20091;-63
2023/04/18 12:25:22;;;;;;;11.07;6.47;;;;;;;;;;10290711;28;20072;-63
2023/04/18 12:30:26;;;;;;;8.48;5.97;;;;;;;;;;10291662;28;20083;-63
2023/04/18 12:35:25;;;;;;;10.07;6.00;;;;;;;;;;10291757;28;20114;-63
2023/04/18 12:40:25;;;;;;;16.08;6.75;;;;;;;;;;10291846;28;20463;-63
2023/04/18 12:45:23;;;;;;;11.98;7.05;;;;;;;;;;10290774;28;20083;-63
2023/04/18 12:50:22;;;;;;;10.60;6.38;;;;;;;;;;10290088;28;20072;-63
2023/04/18 12:55:23;;;;;;;8.73;6.13;;;;;;;;;;10287800;28;20067;-63
2023/04/18 13:00:22;;;;;;;11.13;6.85;;;;;;;;;;10290468;28;20068;-63
2023/04/18 13:05:22;;;;;;;8.75;6.82;;;;;;;;;;10290030;28;20144;-63
2023/04/18 13:10:23;;;;;;;12.15;7.90;;;;;;;;;;10291344;28;20497;-63
2023/04/18 13:15:22;;;;;;;13.43;7.25;;;;;;;;;;10290630;28;20083;-63
2023/04/18 13:20:21;;;;;;;11.27;7.28;;;;;;;;;;10287687;28;20076;-62
2023/04/18 13:25:19;;;;;;;14.55;7.80;;;;;;;;;;10286540;28;20068;-62
2023/04/18 13:30:18;;;;;;;9.63;6.75;;;;;;;;;;10289761;28;20069;-62
2023/04/18 13:35:16;;;;;;;11.57;7.60;;;;;;;;;;10290986;28;20079;-62
2023/04/18 13:40:15;;;;;;;14.35;8.43;;;;;;;;;;10289315;28;20060;-63
2023/04/18 13:45:13;;;;;;;10.57;6.07;;;;;;;;;;10289655;28;20085;-63
2023/04/18 13:50:12;;;;;;;12.38;7.32;;;;;;;;;;10289954;28;20068;-62
2023/04/18 13:55:11;;;;;;;16.25;7.75;;;;;;;;;;10291632;28;20065;-62
2023/04/18 14:00:12;;;;;;;11.75;7.85;;;;;;;;;;10291623;28;20075;-62
2023/04/18 14:05:13;;;;;;;19.60;8.93;;;;;;;;;;10290281;28;20072;-63
2023/04/18 14:10:11;;;;;;;15.20;8.55;;;;;;;;;;10299238;28;20566;-63
2023/04/18 14:15:10;;;;;;;18.70;10.85;;;;;;;;;;10298327;28;20075;-63
2023/04/18 14:20:08;;;;;;;15.10;9.32;;;;;;;;;;10296445;28;20072;-63
2023/04/18 14:25:09;;;;;;;15.65;8.50;;;;;;;;;;10283687;28;20091;-66
2023/04/18 14:30:08;;;;;;;16.77;11.52;;;;;;;;;;10280976;28;20507;-64
2023/04/18 14:35:08;;;;;;;16.10;9.05;;;;;;;;;;10277594;28;20073;-63
2023/04/18 14:40:07;;;;;;;42.95;24.80;;;;;;;;;;10287932;28;20071;-64
2023/04/18 14:45:07;;;;;;;18.17;12.57;;;;;;;;;;10272440;28;20081;-63
2023/04/18 14:50:06;;;;;;;45.10;26.08;;;;;;;;;;10285715;28;21423;-63
2023/04/18 14:55:04;;;;;;;26.88;13.93;;;;;;;;;;10272626;28;20072;-63
2023/04/18 15:00:04;;;;;;;19.90;12.23;;;;;;;;;;10286837;28;20059;-64
2023/04/18 15:05:04;;;;;;;24.15;15.27;;;;;;;;;;10291808;28;20080;-63
2023/04/18 15:10:02;;;;;;;20.92;13.40;;;;;;;;;;10287302;28;20510;-64
2023/04/18 15:15:00;;;;;;;17.42;11.85;;;;;;;;;;10291180;28;20458;-63
2023/04/18 15:19:59;;;;;;;19.35;9.85;;;;;;;;;;10280801;28;20065;-63
2023/04/18 15:24:58;;;;;;;18.50;11.73;;;;;;;;;;10275975;28;20087;-64
2023/04/18 15:29:58;;;;;;;18.35;11.10;;;;;;;;;;10281473;28;20528;-64
2023/04/18 15:34:56;;;;;;;16.60;11.52;;;;;;;;;;10272286;28;20510;-64
2023/04/18 15:39:55;;;;;;;15.77;11.60;;;;;;;;;;10272832;28;20064;-64
2023/04/18 15:44:56;;;;;;;21.60;14.63;;;;;;;;;;10275267;28;20092;-64
2023/04/18 15:49:54;;;;;;;17.55;12.65;;;;;;;;;;10286164;28;20077;-64
2023/04/18 15:54:53;;;;;;;13.68;11.10;;;;;;;;;;10287749;28;20079;-64
2023/04/18 15:59:51;;;;;;;18.45;9.85;;;;;;;;;;10289097;28;20981;-64
2023/04/18 16:04:50;;;;;;;25.00;15.93;;;;;;;;;;10285248;28;20079;-63
2023/04/18 16:09:49;;;;;;;25.00;17.98;;;;;;;;;;10271251;28;20465;-64
2023/04/18 16:14:47;;;;;;;18.40;14.70;;;;;;;;;;10283508;28;20065;-64
2023/04/18 16:19:45;;;;;;;28.50;22.58;;;;;;;;;;10286515;28;20072;-64
2023/04/18 16:24:44;;;;;;;18.95;14.07;;;;;;;;;;10279006;28;20489;-60
2023/04/18 16:29:43;;;;;;;23.77;16.95;;;;;;;;;;10284669;28;20071;-64
2023/04/18 16:34:42;;;;;;;43.75;35.83;;;;;;;;;;10278895;28;20092;-63
2023/04/18 16:39:40;;;;;;;61.60;47.38;;;;;;;;;;10277242;28;20254;-64
2023/04/18 16:44:39;;;;;;;48.47;34.38;;;;;;;;;;10280902;28;20525;-64
2023/04/18 16:49:37;;;;;;;85.05;76.15;;;;;;;;;;10274965;28;20079;-64
2023/04/18 16:54:35;;;;;;;46.03;33.90;;;;;;;;;;10273065;28;20064;-64
2023/04/18 16:59:34;;;;;;;85.97;67.38;;;;;;;;;;10285556;28;20076;-64
2023/04/18 17:04:34;;;;;;;81.60;57.55;;;;;;;;;;10287893;28;20060;-64
2023/04/18 17:09:32;;;;;;;43.30;34.47;;;;;;;;;;10269750;28;20064;-65
2023/04/18 17:14:30;;;;;;;34.85;23.48;;;;;;;;;;10273867;28;20072;-64
2023/04/18 17:19:28;;;;;;;32.17;23.58;;;;;;;;;;10267314;28;20072;-64
2023/04/18 17:24:28;;;;;;;20.25;17.13;;;;;;;;;;10275177;28;20492;-64
2023/04/18 17:29:26;;;;;;;23.83;17.77;;;;;;;;;;10281228;28;20479;-64
2023/04/18 17:34:24;;;;;;;34.65;24.10;;;;;;;;;;10260376;28;20064;-63
2023/04/18 17:39:22;;;;;;;22.60;15.05;;;;;;;;;;10265552;28;20079;-63
2023/04/18 17:44:22;;;;;;;23.02;14.63;;;;;;;;;;10263440;28;20064;-63
2023/04/18 17:49:20;;;;;;;21.08;13.07;;;;;;;;;;10265058;28;20463;-63
2023/04/18 17:54:18;;;;;;;21.98;15.23;;;;;;;;;;10261216;28;20126;-63
2023/04/18 17:59:17;;;;;;;19.92;10.75;;;;;;;;;;10264612;28;20068;-63
2023/04/18 18:04:18;;;;;;;18.67;10.70;;;;;;;;;;10273068;28;20526;-63
2023/04/18 18:09:16;;;;;;;21.88;13.55;;;;;;;;;;10257193;28;20120;-63
2023/04/18 18:14:15;;;;;;;26.25;12.77;;;;;;;;;;10279962;28;20178;-62
2023/04/18 18:19:13;;;;;;;27.25;10.95;;;;;;;;;;10253296;28;20065;-64
2023/04/18 18:24:13;;;;;;;18.15;9.00;;;;;;;;;;10285097;28;20075;-65
2023/04/18 18:29:11;;;;;;;15.52;9.05;;;;;;;;;;10284786;28;20092;-63
2023/04/18 18:34:10;;;;;;;11.20;6.93;;;;;;;;;;10281836;28;20076;-62
2023/04/18 18:39:09;;;;;;;17.48;7.43;;;;;;;;;;10284953;28;20073;-62
2023/04/18 18:44:09;;;;;;;20.05;8.63;;;;;;;;;;10278783;28;20088;-63
2023/04/18 18:49:07;;;;;;;19.63;9.40;;;;;;;;;;10280570;28;20072;-63
2023/04/18 18:54:06;;;;;;;22.58;9.65;;;;;;;;;;10276468;28;20068;-64
2023/04/18 18:59:04;;;;;;;15.73;9.75;;;;;;;;;;10284956;28;20083;-63
2023/04/18 19:04:03;;;;;;;18.38;8.35;;;;;;;;;;10283243;28;20099;-63
2023/04/18 19:09:02;;;;;;;21.17;8.82;;;;;;;;;;10292602;28;20068;-63
2023/04/18 19:14:01;;;;;;;18.40;7.95;;;;;;;;;;10277091;28;20478;-64
2023/04/18 19:18:59;;;;;;;15.82;7.65;;;;;;;;;;10278892;28;20086;-63
2023/04/18 19:23:59;;;;;;;17.75;7.07;;;;;;;;;;10289006;28;20073;-63
2023/04/18 19:28:57;;;;;;;13.70;8.52;;;;;;;;;;10274182;28;20076;-64
2023/04/18 19:33:55;;;;;;;16.40;7.43;;;;;;;;;;10287863;28;20074;-64
2023/04/18 19:38:54;;;;;;;16.27;9.70;;;;;;;;;;10298459;28;20076;-64
2023/04/18 19:43:53;;;;;;;16.67;9.57;;;;;;;;;;10262453;28;20072;-64
2023/04/18 19:48:51;;;;;;;23.02;10.88;;;;;;;;;;10268864;28;20073;-64
2023/04/18 19:53:50;;;;;;;18.92;8.73;;;;;;;;;;10289010;28;20549;-64
2023/04/18 19:58:48;;;;;;;17.05;8.68;;;;;;;;;;10283298;28;20064;-64
2023/04/18 20:03:48;;;;;;;17.10;7.68;;;;;;;;;;10289463;28;20060;-63
2023/04/18 20:08:46;;;;;;;13.00;6.15;;;;;;;;;;10272244;28;20483;-64
2023/04/18 20:13:44;;;;;;;11.18;7.07;;;;;;;;;;10278513;28;20065;-64
2023/04/18 20:18:43;;;;;;;14.02;6.82;;;;;;;;;;10289560;28;20830;-64
2023/04/18 20:23:44;;;;;;;10.35;7.80;;;;;;;;;;10287005;28;20553;-63
2023/04/18 20:28:42;;;;;;;14.63;7.72;;;;;;;;;;10284681;28;20076;-63
2023/04/18 20:33:40;;;;;;;18.45;11.40;;;;;;;;;;10288163;28;20524;-63
2023/04/18 20:38:39;;;;;;;17.90;7.10;;;;;;;;;;10285518;28;20481;-64
2023/04/18 20:43:39;;;;;;;14.02;8.93;;;;;;;;;;10289076;28;20091;-63
2023/04/18 20:48:38;;;;;;;12.73;9.13;;;;;;;;;;10299487;28;20073;-63
2023/04/18 20:53:36;;;;;;;13.18;7.30;;;;;;;;;;10289361;28;20091;-63
2023/04/18 20:58:34;;;;;;;13.75;6.97;;;;;;;;;;10288397;28;20592;-64
2023/04/18 21:03:34;;;;;;;40.15;15.13;;;;;;;;;;10284744;28;20072;-64
2023/04/18 21:08:33;;;;;;;21.85;10.20;;;;;;;;;;10290192;28;20440;-64
2023/04/18 21:13:32;;;;;;;21.23;8.95;;;;;;;;;;10284237;28;20078;-64
2023/04/18 21:18:30;;;;;;;15.52;9.55;;;;;;;;;;10284981;28;20086;-64
2023/04/18 21:23:30;;;;;;;16.92;12.57;;;;;;;;;;10285133;28;20091;-64
2023/04/18 21:28:28;;;;;;;22.80;8.48;;;;;;;;;;10284383;28;20068;-64
2023/04/18 21:33:26;;;;;;;16.38;8.63;;;;;;;;;;10288813;28;20059;-64
2023/04/18 21:38:24;;;;;;;10.57;6.07;;;;;;;;;;10280481;28;20521;-63
2023/04/18 21:43:24;;;;;;;10.52;6.70;;;;;;;;;;10275949;28;20087;-63
2023/04/18 21:48:23;;;;;;;13.43;8.38;;;;;;;;;;10278536;28;20081;-63
2023/04/18 21:53:21;;;;;;;11.40;6.65;;;;;;;;;;10282291;28;20045;-63
2023/04/18 21:58:19;;;;;;;11.52;6.95;;;;;;;;;;10278980;28;20486;-63
2023/04/18 22:03:19;;;;;;;10.95;8.90;;;;;;;;;;10285782;28;20080;-63
2023/04/18 22:08:17;;;;;;;15.77;9.82;;;;;;;;;;10288208;28;20079;-63
2023/04/18 22:13:17;;;;;;;12.43;6.82;;;;;;;;;;10288152;28;20079;-63
2023/04/18 22:18:16;;;;;;;12.27;6.32;;;;;;;;;;10287870;28;20072;-63
2023/04/18 22:23:16;;;;;;;18.35;7.50;;;;;;;;;;10277099;28;20068;-64
2023/04/18 22:28:14;;;;;;;8.10;7.30;;;;;;;;;;10295174;28;20092;-63
2023/04/18 22:33:12;;;;;;;9.13;7.88;;;;;;;;;;10293091;28;20064;-63
2023/04/18 22:38:10;;;;;;;13.32;8.48;;;;;;;;;;10293027;28;20510;-63
2023/04/18 22:43:10;;;;;;;12.70;7.43;;;;;;;;;;10297493;28;20068;-64
2023/04/18 22:48:12;;;;;;;18.33;8.68;;;;;;;;;;10293503;28;20073;-63
2023/04/18 22:53:10;;;;;;;12.07;8.95;;;;;;;;;;10295010;28;20530;-63
2023/04/18 22:58:10;;;;;;;16.58;8.65;;;;;;;;;;10290365;28;20072;-63
2023/04/18 23:03:08;;;;;;;9.40;7.93;;;;;;;;;;10291909;28;20081;-63
2023/04/18 23:08:06;;;;;;;10.00;7.82;;;;;;;;;;10290312;28;20072;-63
2023/04/18 23:13:05;;;;;;;15.68;8.88;;;;;;;;;;10294334;28;20741;-64
2023/04/18 23:18:04;;;;;;;11.55;7.90;;;;;;;;;;10293162;28;20068;-64
2023/04/18 23:23:03;;;;;;;10.38;7.07;;;;;;;;;;10292422;28;20475;-63
2023/04/18 23:28:01;;;;;;;11.50;7.18;;;;;;;;;;10293139;28;20072;-63
2023/04/18 23:32:59;;;;;;;13.43;8.00;;;;;;;;;;10291872;28;20102;-64
2023/04/18 23:37:59;;;;;;;11.65;9.20;;;;;;;;;;10290457;28;20542;-63
2023/04/18 23:42:57;;;;;;;14.10;8.90;;;;;;;;;;10291870;28;20080;-64
2023/04/18 23:47:56;;;;;;;11.18;8.20;;;;;;;;;;10277764;28;20347;-64
2023/04/18 23:52:54;;;;;;;16.30;7.90;;;;;;;;;;10292877;28;20071;-64
2023/04/18 23:57:54;;;;;;;12.77;8.82;;;;;;;;;;10289873;28;20067;-64
